Archival Weather

Sydney Intl

Sydney, Australia (YSSY)

Report from: Friday, September 22, 2023 7:30 PM AEST
Current time: Sunday, February 25, 2024 3:21 AM AEDT

Current weather – Weather history – Daily summaries
Weather forecast

Temperature15.0°C (59.0°F)
Dew point8.0°C (46.4°F)
Winds 8 kts (4.1 m/s, 9.2 mph) Southeast (140°)
Visibility6.2 mi. (10 km)
Clouds Few clouds 3,200 ft. (975 m)
Scattered clouds 3,800 ft. (1,158 m)
Altimeter30.39 in.Hg (1029 mB)
Relative humidity63 %
Density altitude-375 ft. (-114 m)
Flight conditions Visual Meteorological Conditions
Raw dataYSSY 220930Z 14008KT 9999 FEW032 SCT038 15/08 Q1029 RF00.0/000.6
An error has occurred. This application may no longer respond until reloaded. Reload 🗙